createdAt,value
2022-10-01T00:00:03.970Z,43.42
2022-10-01T00:02:56.841Z,47.78
2022-10-01T00:05:29.639Z,43.40
2022-10-01T00:08:02.406Z,52.95
2022-10-01T00:10:34.969Z,41.65
2022-10-01T00:13:08.170Z,42.78
2022-10-01T00:15:41.369Z,37.20
2022-10-01T00:18:14.129Z,42.58
2022-10-01T00:20:46.643Z,39.53
2022-10-01T00:23:19.932Z,40.42
2022-10-01T00:25:53.505Z,39.83
2022-10-01T00:28:26.255Z,44.22
2022-10-01T00:30:59.559Z,35.28
2022-10-01T00:33:36.813Z,40.17
2022-10-01T00:36:11.247Z,40.30
2022-10-01T00:38:44.607Z,44.20
2022-10-01T00:41:18.687Z,35.60
2022-10-01T00:43:58.438Z,39.22
2022-10-01T00:46:44.067Z,44.40
2022-10-01T00:49:20.643Z,38.22
2022-10-01T00:51:58.140Z,41.42
2022-10-01T00:55:16.030Z,43.25
2022-10-01T00:57:48.702Z,40.22
2022-10-01T01:00:22.769Z,43.50
2022-10-01T01:02:55.482Z,40.17
2022-10-01T01:05:28.274Z,38.28
2022-10-01T01:08:02.954Z,45.95
2022-10-01T01:10:59.582Z,41.13
2022-10-01T01:13:55.738Z,41.92
2022-10-01T01:16:36.110Z,40.83
2022-10-01T01:19:21.955Z,41.67
2022-10-01T01:22:00.634Z,37.25
2022-10-01T01:24:33.166Z,40.78
2022-10-01T01:27:37.495Z,43.03
2022-10-01T01:30:15.102Z,42.63
2022-10-01T01:33:03.370Z,40.63
2022-10-01T01:35:44.207Z,39.13
2022-10-01T01:38:24.457Z,38.35
2022-10-01T01:41:00.554Z,41.63
2022-10-01T01:43:38.523Z,37.25
2022-10-01T01:46:13.460Z,45.15
2022-10-01T01:48:49.192Z,39.00
2022-10-01T01:52:01.689Z,47.22
2022-10-01T01:54:36.638Z,42.63
2022-10-01T01:57:10.732Z,41.30
2022-10-01T01:59:44.123Z,37.72
2022-10-01T02:02:29.418Z,38.80
2022-10-01T02:05:16.062Z,45.53
2022-10-01T02:08:12.843Z,43.88
2022-10-01T02:10:55.354Z,45.05
2022-10-01T02:13:47.895Z,39.72
2022-10-01T02:16:24.490Z,42.92
2022-10-01T02:19:14.113Z,36.03
2022-10-01T02:21:57.414Z,40.25
2022-10-01T02:24:43.427Z,48.33
2022-10-01T02:27:20.885Z,43.75
2022-10-01T02:29:57.622Z,44.10
2022-10-01T02:32:31.610Z,51.38
2022-10-01T02:35:07.558Z,45.85
2022-10-01T02:37:44.403Z,47.45
2022-10-01T02:40:22.440Z,48.78
2022-10-01T02:43:00.555Z,58.83
2022-10-01T02:45:37.841Z,48.92
2022-10-01T02:48:12.001Z,51.40
2022-10-01T02:50:55.327Z,46.90
2022-10-01T02:53:35.890Z,51.72
2022-10-01T02:56:10.269Z,49.72
2022-10-01T02:58:42.953Z,52.13
2022-10-01T03:01:15.544Z,47.92
2022-10-01T03:03:48.249Z,54.88
2022-10-01T03:06:20.762Z,55.65
2022-10-01T03:08:53.689Z,53.22
2022-10-01T03:11:26.454Z,49.88
2022-10-01T03:13:59.336Z,52.40
2022-10-01T03:16:31.901Z,56.80
2022-10-01T03:19:04.713Z,58.75
2022-10-01T03:21:37.298Z,46.35
2022-10-01T03:24:10.334Z,48.53
2022-10-01T03:26:42.843Z,45.85
2022-10-01T03:29:15.578Z,53.13
2022-10-01T03:31:48.143Z,56.60
2022-10-01T03:34:20.958Z,45.25
2022-10-01T03:36:53.655Z,45.45
2022-10-01T03:39:26.422Z,45.00
2022-10-01T03:41:59.015Z,45.45
2022-10-01T03:44:32.325Z,42.38
2022-10-01T03:47:04.890Z,46.72
2022-10-01T03:49:38.309Z,46.03
2022-10-01T03:52:10.789Z,40.53
2022-10-01T03:54:43.598Z,39.72
2022-10-01T03:57:16.226Z,38.08
2022-10-01T03:59:49.165Z,37.30
2022-10-01T04:02:22.268Z,42.58
2022-10-01T04:04:55.251Z,40.97
2022-10-01T04:07:27.983Z,40.72
2022-10-01T04:10:00.789Z,47.45
2022-10-01T04:12:33.838Z,39.65
2022-10-01T04:15:07.006Z,48.08
2022-10-01T04:17:43.803Z,41.35
2022-10-01T04:20:18.662Z,43.80
2022-10-01T04:22:51.367Z,48.60
2022-10-01T04:25:24.147Z,41.08
2022-10-01T04:27:59.995Z,42.20
2022-10-01T04:30:36.134Z,45.28
2022-10-01T04:33:14.237Z,43.30
2022-10-01T04:35:47.034Z,43.28
2022-10-01T04:38:19.575Z,45.95
2022-10-01T04:40:52.615Z,47.80
2022-10-01T04:43:25.320Z,43.42
2022-10-01T04:45:58.183Z,46.72
2022-10-01T04:48:30.689Z,47.72
2022-10-01T04:51:03.619Z,42.85
2022-10-01T04:53:36.204Z,48.85
2022-10-01T04:56:09.093Z,42.38
2022-10-01T04:58:41.999Z,46.35
2022-10-01T05:01:15.026Z,45.60
2022-10-01T05:03:47.656Z,50.70
2022-10-01T05:06:20.381Z,45.22
2022-10-01T05:08:52.928Z,47.83
2022-10-01T05:11:26.134Z,51.15
2022-10-01T05:13:59.590Z,48.60
2022-10-01T05:16:32.747Z,45.95
2022-10-01T05:19:05.268Z,42.25
2022-10-01T05:21:38.043Z,42.47
2022-10-01T05:24:10.660Z,48.13
2022-10-01T05:26:43.418Z,47.95
2022-10-01T05:29:16.114Z,48.15
2022-10-01T05:31:49.572Z,47.53
2022-10-01T05:34:22.098Z,45.55
2022-10-01T05:36:55.579Z,50.20
2022-10-01T05:39:28.153Z,47.67
2022-10-01T05:42:06.417Z,54.65
2022-10-01T05:44:40.858Z,48.03
2022-10-01T05:47:17.368Z,57.30
2022-10-01T05:49:50.082Z,46.08
2022-10-01T05:52:22.814Z,59.47
2022-10-01T05:54:55.414Z,47.92
2022-10-01T05:57:28.133Z,50.40
2022-10-01T06:00:00.744Z,46.20
2022-10-01T06:02:33.661Z,47.90
2022-10-01T06:05:06.621Z,54.53
2022-10-01T06:07:39.465Z,48.42
2022-10-01T06:10:12.078Z,45.35
2022-10-01T06:12:45.012Z,51.80
2022-10-01T06:15:18.383Z,45.85
2022-10-01T06:17:52.301Z,43.30
2022-10-01T06:20:24.928Z,52.47
2022-10-01T06:22:58.925Z,53.25
2022-10-01T06:25:31.757Z,49.50
2022-10-01T06:28:06.940Z,54.22
2022-10-01T06:30:40.336Z,48.15
2022-10-01T06:33:15.148Z,50.17
2022-10-01T06:35:52.746Z,51.15
2022-10-01T06:38:26.443Z,48.40
2022-10-01T06:41:01.113Z,56.67
2022-10-01T06:43:34.348Z,49.42
2022-10-01T06:46:07.002Z,49.25
2022-10-01T06:48:39.817Z,44.13
2022-10-01T06:51:12.320Z,54.97
2022-10-01T06:53:45.007Z,51.10
2022-10-01T06:56:17.487Z,53.25
2022-10-01T06:58:50.442Z,51.67
2022-10-01T07:01:23.039Z,61.30
2022-10-01T07:03:56.310Z,52.72
2022-10-01T07:06:28.797Z,53.80
2022-10-01T07:09:01.769Z,51.50
2022-10-01T07:11:38.477Z,51.30
2022-10-01T07:14:11.382Z,52.63
2022-10-01T07:16:43.983Z,50.42
2022-10-01T07:19:16.831Z,53.17
2022-10-01T07:21:49.464Z,50.40
2022-10-01T07:24:22.249Z,50.50
2022-10-01T07:26:55.736Z,56.70
2022-10-01T07:29:29.542Z,55.65
2022-10-01T07:32:04.171Z,50.92
2022-10-01T07:34:40.389Z,47.15
2022-10-01T07:37:12.940Z,46.17
2022-10-01T07:39:45.675Z,48.90
2022-10-01T07:42:18.223Z,54.78
2022-10-01T07:44:51.255Z,55.72
2022-10-01T07:47:23.791Z,49.22
2022-10-01T07:49:56.506Z,48.38
2022-10-01T07:52:29.054Z,52.78
2022-10-01T07:55:03.544Z,47.35
2022-10-01T07:57:37.283Z,53.10
2022-10-01T08:00:10.413Z,52.40
2022-10-01T08:02:50.888Z,49.30
2022-10-01T08:05:29.125Z,45.05
2022-10-01T08:08:05.143Z,47.05
2022-10-01T08:10:38.951Z,48.75
2022-10-01T08:13:15.942Z,46.40
2022-10-01T08:15:53.641Z,46.92
2022-10-01T08:18:26.633Z,44.95
2022-10-01T08:21:02.131Z,44.35
2022-10-01T08:23:35.022Z,40.42
2022-10-01T08:26:08.721Z,43.78
2022-10-01T08:28:42.101Z,35.33
2022-10-01T08:31:14.837Z,36.35
2022-10-01T08:33:47.361Z,33.35
2022-10-01T08:36:20.330Z,38.15
2022-10-01T08:38:52.933Z,35.05
2022-10-01T08:41:42.505Z,31.95
2022-10-01T08:44:21.819Z,32.47
2022-10-01T08:47:06.671Z,30.83
2022-10-01T08:49:48.582Z,34.35
2022-10-01T08:52:32.276Z,30.77
2022-10-01T08:55:10.895Z,27.08
2022-10-01T08:57:52.158Z,29.52
2022-10-01T09:00:25.157Z,33.17
2022-10-01T09:03:01.329Z,27.88
2022-10-01T09:05:42.588Z,28.55
2022-10-01T09:08:43.903Z,24.58
2022-10-01T09:11:43.766Z,25.02
2022-10-01T09:14:40.466Z,25.05
2022-10-01T09:17:29.347Z,24.80
2022-10-01T09:20:05.991Z,22.60
2022-10-01T09:22:41.370Z,21.15
2022-10-01T09:25:24.153Z,24.75
2022-10-01T09:28:14.417Z,23.35
2022-10-01T09:31:24.244Z,25.73
2022-10-01T09:34:03.777Z,23.23
2022-10-01T09:37:06.622Z,24.40
2022-10-01T09:39:43.526Z,19.70
2022-10-01T09:42:18.433Z,19.15
2022-10-01T09:44:51.824Z,19.45
2022-10-01T09:47:28.396Z,19.60
2022-10-01T09:50:05.427Z,23.00
2022-10-01T09:52:39.858Z,22.70
2022-10-01T09:55:18.495Z,20.42
2022-10-01T09:57:57.851Z,17.30
2022-10-01T10:00:31.261Z,18.57
2022-10-01T10:03:04.164Z,18.92
2022-10-01T10:05:46.668Z,26.20
2022-10-01T10:08:31.376Z,17.95
2022-10-01T10:11:08.456Z,17.35
2022-10-01T10:13:49.605Z,15.20
2022-10-01T10:16:30.981Z,15.88
2022-10-01T10:19:16.044Z,22.30
2022-10-01T10:22:24.965Z,13.60
2022-10-01T10:24:59.015Z,15.23
2022-10-01T10:27:31.504Z,17.30
2022-10-01T10:30:15.494Z,15.55
2022-10-01T10:32:48.484Z,15.68
2022-10-01T10:35:25.768Z,17.27
2022-10-01T10:37:58.857Z,16.65
2022-10-01T10:40:43.027Z,14.93
2022-10-01T10:43:30.431Z,14.70
2022-10-01T10:46:03.704Z,19.80
2022-10-01T10:48:45.896Z,15.95
2022-10-01T10:51:18.763Z,17.02
2022-10-01T10:53:51.431Z,15.50
2022-10-01T10:56:25.452Z,11.63
2022-10-01T10:59:09.927Z,13.45
2022-10-01T11:01:43.537Z,14.65
2022-10-01T11:04:45.921Z,12.52
2022-10-01T11:07:24.267Z,15.18
2022-10-01T11:10:18.448Z,14.43
2022-10-01T11:13:32.853Z,16.50
2022-10-01T11:16:44.106Z,12.50
2022-10-01T11:19:38.215Z,14.10
2022-10-01T11:22:16.917Z,15.68
2022-10-01T11:25:01.101Z,14.02
2022-10-01T11:27:43.975Z,14.38
2022-10-01T11:30:26.532Z,15.77
2022-10-01T11:33:29.052Z,13.48
2022-10-01T11:36:06.132Z,17.63
2022-10-01T11:38:45.694Z,15.15
2022-10-01T11:41:48.523Z,11.90
2022-10-01T11:44:30.813Z,12.93
2022-10-01T11:47:25.838Z,14.43
2022-10-01T11:50:13.043Z,13.40
2022-10-01T11:52:52.818Z,16.33
2022-10-01T11:56:04.972Z,12.38
2022-10-01T11:58:59.132Z,10.73
2022-10-01T12:01:47.704Z,15.02
2022-10-01T12:04:32.600Z,11.80
2022-10-01T12:07:20.379Z,12.73
2022-10-01T12:10:10.663Z,12.38
2022-10-01T12:12:48.828Z,15.57
2022-10-01T12:15:24.239Z,13.35
2022-10-01T12:18:24.107Z,12.98
2022-10-01T12:21:01.374Z,14.88
2022-10-01T12:24:02.761Z,11.85
2022-10-01T12:27:02.303Z,12.70
2022-10-01T12:29:51.107Z,15.30
2022-10-01T12:32:51.760Z,15.50
2022-10-01T12:35:48.202Z,12.90
2022-10-01T12:38:45.031Z,13.50
2022-10-01T12:41:42.161Z,18.20
2022-10-01T12:44:29.195Z,15.95
2022-10-01T12:47:29.247Z,17.00
2022-10-01T12:50:48.886Z,15.63
2022-10-01T12:53:33.174Z,14.30
2022-10-01T12:56:10.408Z,18.73
2022-10-01T12:59:06.544Z,13.13
2022-10-01T13:01:51.912Z,19.73
2022-10-01T13:04:38.827Z,15.65
2022-10-01T13:07:42.747Z,13.82
2022-10-01T13:10:42.850Z,16.30
2022-10-01T13:13:33.523Z,16.73
2022-10-01T13:16:06.187Z,20.58
2022-10-01T13:18:53.182Z,14.15
2022-10-01T13:21:33.516Z,17.13
2022-10-01T13:24:11.295Z,17.77
2022-10-01T13:27:17.993Z,16.10
2022-10-01T13:30:06.056Z,15.85
2022-10-01T13:32:51.338Z,16.02
2022-10-01T13:35:40.575Z,19.15
2022-10-01T13:38:29.157Z,19.00
2022-10-01T13:41:16.272Z,16.92
2022-10-01T13:43:59.300Z,13.73
2022-10-01T13:46:34.135Z,19.17
2022-10-01T13:49:18.382Z,18.05
2022-10-01T13:51:52.691Z,15.90
2022-10-01T13:54:28.354Z,18.75
2022-10-01T13:57:26.079Z,18.67
2022-10-01T14:00:16.733Z,15.73
2022-10-01T14:03:04.760Z,18.10
2022-10-01T14:05:40.189Z,16.83
2022-10-01T14:08:16.528Z,14.55
2022-10-01T14:11:20.451Z,15.20
2022-10-01T14:14:12.884Z,13.95
2022-10-01T14:16:47.654Z,12.55
2022-10-01T14:19:22.337Z,15.80
2022-10-01T14:22:34.080Z,14.38
2022-10-01T14:25:39.223Z,18.40
2022-10-01T14:28:46.143Z,13.90
2022-10-01T14:32:00.239Z,15.02
2022-10-01T14:34:33.006Z,18.02
2022-10-01T14:37:08.447Z,18.00
2022-10-01T14:39:41.053Z,16.52
2022-10-01T14:42:17.881Z,18.17
2022-10-01T14:44:50.517Z,18.08
2022-10-01T14:47:25.507Z,15.68
2022-10-01T14:50:09.827Z,23.70
2022-10-01T14:52:49.492Z,19.15
2022-10-01T14:55:24.669Z,22.40
2022-10-01T14:57:58.598Z,25.55
2022-10-01T15:00:33.384Z,18.95
2022-10-01T15:03:15.788Z,27.15
2022-10-01T15:05:49.802Z,24.25
2022-10-01T15:08:34.060Z,25.02
2022-10-01T15:11:10.410Z,21.15
2022-10-01T15:13:45.812Z,26.63
2022-10-01T15:16:22.053Z,24.38
2022-10-01T15:19:07.172Z,27.00
2022-10-01T15:21:45.388Z,25.80
2022-10-01T15:24:32.157Z,23.73
2022-10-01T15:27:06.726Z,28.50
2022-10-01T15:29:42.756Z,25.17
2022-10-01T15:32:18.132Z,31.75
2022-10-01T15:34:56.897Z,35.83
2022-10-01T15:37:35.826Z,32.20
2022-10-01T15:40:21.162Z,27.95
2022-10-01T15:43:21.771Z,31.15
2022-10-01T15:46:17.774Z,32.88
2022-10-01T15:49:11.978Z,29.42
2022-10-01T15:52:17.011Z,32.95
2022-10-01T15:54:58.971Z,35.13
2022-10-01T15:57:42.079Z,36.83
2022-10-01T16:00:28.926Z,33.65
2022-10-01T16:03:03.206Z,33.70
2022-10-01T16:05:45.195Z,34.33
2022-10-01T16:08:24.276Z,34.13
2022-10-01T16:11:17.543Z,32.03
2022-10-01T16:13:52.266Z,32.90
2022-10-01T16:16:26.747Z,32.70
2022-10-01T16:19:22.086Z,31.63
2022-10-01T16:22:18.793Z,35.03
2022-10-01T16:25:01.694Z,28.00
2022-10-01T16:27:58.771Z,32.92
2022-10-01T16:30:34.225Z,34.58
2022-10-01T16:33:09.509Z,29.05
2022-10-01T16:35:45.504Z,30.60
2022-10-01T16:38:18.231Z,30.05
2022-10-01T16:40:51.111Z,31.05
2022-10-01T16:43:24.484Z,35.50
2022-10-01T16:45:59.110Z,32.25
2022-10-01T16:48:31.787Z,34.10
2022-10-01T16:51:04.704Z,35.60
2022-10-01T16:53:39.303Z,34.08
2022-10-01T16:56:12.540Z,38.63
2022-10-01T16:58:45.806Z,34.67
2022-10-01T17:01:19.001Z,35.85
2022-10-01T17:03:51.753Z,33.38
2022-10-01T17:06:24.529Z,38.00
2022-10-01T17:08:57.094Z,36.42
2022-10-01T17:11:30.142Z,35.10
2022-10-01T17:14:07.023Z,35.55
2022-10-01T17:16:40.157Z,43.38
2022-10-01T17:19:13.380Z,39.47
2022-10-01T17:21:46.261Z,36.67
2022-10-01T17:24:18.800Z,42.20
2022-10-01T17:26:51.575Z,38.63
2022-10-01T17:29:24.180Z,35.10
2022-10-01T17:31:56.934Z,14.23
2022-10-01T17:34:29.542Z,10.82
2022-10-01T17:37:02.291Z,6.18
2022-10-01T17:39:35.651Z,10.25
2022-10-01T17:42:08.933Z,7.05
2022-10-01T17:44:41.463Z,8.20
2022-10-01T17:47:15.043Z,6.97
2022-10-01T17:49:47.724Z,14.32
2022-10-01T17:52:20.608Z,8.75
2022-10-01T17:54:53.129Z,8.45
2022-10-01T17:57:25.930Z,9.40
2022-10-01T17:59:58.537Z,8.25
2022-10-01T18:02:47.026Z,8.52
2022-10-01T18:05:19.611Z,6.38
2022-10-01T18:07:52.585Z,8.40
2022-10-01T18:10:25.184Z,8.40
2022-10-01T18:12:58.060Z,8.63
2022-10-01T18:15:30.652Z,6.97
2022-10-01T18:21:00.430Z,10.40
2022-10-01T18:23:33.433Z,8.95
2022-10-01T18:26:06.705Z,10.95
2022-10-01T18:28:39.530Z,9.70
2022-10-01T18:31:12.111Z,10.23
2022-10-01T18:33:55.452Z,12.55
2022-10-01T18:36:46.889Z,10.45
2022-10-01T18:39:57.863Z,12.02
2022-10-01T18:42:41.652Z,9.70
2022-10-01T18:45:40.921Z,12.27
2022-10-01T18:48:25.044Z,7.85
2022-10-01T18:51:21.518Z,10.65
2022-10-01T18:54:00.762Z,8.98
2022-10-01T18:56:35.922Z,7.18
2022-10-01T18:59:19.892Z,10.68
2022-10-01T19:01:55.630Z,10.80
2022-10-01T19:04:41.652Z,11.75
2022-10-01T19:07:47.585Z,15.00
2022-10-01T19:10:33.938Z,14.95
2022-10-01T19:13:19.350Z,13.35
2022-10-01T19:15:52.226Z,13.93
2022-10-01T19:18:34.056Z,15.43
2022-10-01T19:21:35.837Z,15.23
2022-10-01T19:24:23.618Z,19.67
2022-10-01T19:27:24.287Z,21.58
2022-10-01T19:30:17.026Z,19.38
2022-10-01T19:32:49.864Z,18.55
2022-10-01T19:35:36.538Z,21.95
2022-10-01T19:38:17.475Z,21.05
2022-10-01T19:41:22.337Z,26.52
2022-10-01T19:44:02.255Z,29.25
2022-10-01T19:46:39.162Z,26.52
2022-10-01T19:49:15.251Z,30.90
2022-10-01T19:52:01.767Z,27.92
2022-10-01T19:54:42.223Z,30.13
2022-10-01T19:57:17.393Z,18.65
2022-10-01T19:59:54.255Z,20.88
2022-10-01T20:02:41.014Z,26.30
2022-10-01T20:05:20.770Z,22.88
2022-10-01T20:08:06.899Z,17.30
2022-10-01T20:10:51.176Z,19.45
2022-10-01T20:13:32.599Z,20.23
2022-10-01T20:16:24.170Z,13.68
2022-10-01T20:19:03.310Z,15.77
2022-10-01T20:22:06.311Z,16.97
2022-10-01T20:24:48.246Z,18.80
2022-10-01T20:27:49.404Z,16.85
2022-10-01T20:30:23.916Z,16.70
2022-10-01T20:33:09.126Z,20.83
2022-10-01T20:36:08.083Z,20.20
2022-10-01T20:38:49.042Z,19.17
2022-10-01T20:41:24.680Z,20.38
2022-10-01T20:44:00.241Z,18.00
2022-10-01T20:46:40.144Z,23.40
2022-10-01T20:51:56.142Z,14.90
2022-10-01T20:54:36.750Z,16.80
2022-10-01T20:57:25.268Z,20.05
2022-10-01T21:00:08.173Z,19.48
2022-10-01T21:02:48.831Z,21.00
2022-10-01T21:05:35.425Z,24.88
2022-10-01T21:08:32.589Z,21.38
2022-10-01T21:11:16.583Z,24.40
2022-10-01T21:14:11.104Z,21.02
2022-10-01T21:17:13.758Z,21.85
2022-10-01T21:20:02.193Z,17.88
2022-10-01T21:23:11.850Z,24.15
2022-10-01T21:25:44.344Z,16.07
2022-10-01T21:28:42.435Z,19.98
2022-10-01T21:31:18.107Z,17.88
2022-10-01T21:34:25.551Z,18.58
2022-10-01T21:37:12.890Z,19.30
2022-10-01T21:40:06.705Z,18.17
2022-10-01T21:43:03.426Z,19.63
2022-10-01T21:45:43.178Z,17.73
2022-10-01T21:48:25.031Z,21.83
2022-10-01T21:51:09.022Z,19.77
2022-10-01T21:53:41.589Z,28.42
2022-10-01T21:56:20.611Z,19.40
2022-10-01T21:59:32.934Z,19.30
2022-10-01T22:02:34.817Z,22.42
2022-10-01T22:05:23.922Z,21.20
2022-10-01T22:08:01.553Z,22.85
2022-10-01T22:10:42.315Z,23.58
2022-10-01T22:13:22.031Z,23.65
2022-10-01T22:15:59.588Z,23.17
2022-10-01T22:19:05.297Z,23.35
2022-10-01T22:21:48.340Z,21.77
2022-10-01T22:24:27.055Z,22.90
2022-10-01T22:27:09.169Z,23.38
2022-10-01T22:29:48.937Z,20.75
2022-10-01T22:32:26.112Z,19.17
2022-10-01T22:35:06.956Z,21.67
2022-10-01T22:38:10.023Z,24.17
2022-10-01T22:40:47.904Z,24.08
2022-10-01T22:43:20.596Z,20.08
2022-10-01T22:46:32.286Z,18.58
2022-10-01T22:49:32.559Z,26.48
2022-10-01T22:55:06.971Z,19.05
2022-10-01T22:58:06.382Z,16.10
2022-10-01T23:01:17.279Z,19.20
2022-10-01T23:04:13.800Z,18.00
2022-10-01T23:07:04.975Z,17.92
2022-10-01T23:10:04.219Z,15.68
2022-10-01T23:13:15.388Z,21.20
2022-10-01T23:16:26.921Z,15.07
2022-10-01T23:19:12.580Z,16.13
2022-10-01T23:22:20.359Z,17.55
2022-10-01T23:25:01.880Z,19.83
2022-10-01T23:27:52.722Z,19.35
2022-10-01T23:30:32.761Z,17.17
2022-10-01T23:33:21.277Z,17.15
2022-10-01T23:36:17.214Z,15.52
2022-10-01T23:39:08.914Z,21.42
2022-10-01T23:42:07.645Z,13.65
2022-10-01T23:45:07.389Z,18.25
2022-10-01T23:47:47.996Z,16.23
2022-10-01T23:50:45.876Z,16.50
2022-10-01T23:53:40.263Z,15.43
2022-10-01T23:56:35.178Z,15.23
2022-10-01T23:59:32.309Z,17.88
